createdAt,value
2017-08-28T00:01:50.913Z,2.83
2017-08-28T00:06:52.877Z,2.50
2017-08-28T00:11:55.305Z,2.40
2017-08-28T00:16:57.900Z,2.10
2017-08-28T00:21:59.911Z,2.60
2017-08-28T00:27:02.223Z,1.87
2017-08-28T00:32:05.799Z,2.37
2017-08-28T00:37:08.422Z,2.27
2017-08-28T00:42:12.269Z,2.20
2017-08-28T00:47:14.629Z,2.80
2017-08-28T00:52:17.166Z,2.63
2017-08-28T00:57:19.145Z,2.87
2017-08-28T01:02:21.611Z,2.50
2017-08-28T01:07:23.618Z,2.50
2017-08-28T01:12:25.960Z,2.43
2017-08-28T01:17:28.616Z,2.30
2017-08-28T01:22:31.288Z,2.20
2017-08-28T01:27:34.185Z,2.37
2017-08-28T01:32:36.827Z,2.50
2017-08-28T01:37:39.608Z,2.43
2017-08-28T01:42:41.614Z,1.93
2017-08-28T01:47:43.890Z,2.37
2017-08-28T01:52:46.755Z,2.53
2017-08-28T01:57:49.427Z,2.90
2017-08-28T02:02:51.900Z,2.43
2017-08-28T02:07:54.564Z,3.57
2017-08-28T02:12:57.371Z,3.37
2017-08-28T02:18:00.149Z,3.20
2017-08-28T02:23:04.030Z,4.13
2017-08-28T02:28:06.883Z,3.73
2017-08-28T02:33:08.949Z,3.70
2017-08-28T02:38:11.830Z,4.20
2017-08-28T02:43:14.030Z,3.53
2017-08-28T02:48:16.090Z,3.43
2017-08-28T02:53:18.622Z,3.40
2017-08-28T02:58:22.493Z,3.27
2017-08-28T03:03:27.112Z,3.00
2017-08-28T03:08:33.256Z,3.03
2017-08-28T03:13:37.684Z,3.00
2017-08-28T03:18:40.526Z,3.10
2017-08-28T03:23:44.895Z,3.90
2017-08-28T03:28:50.938Z,3.60
2017-08-28T03:33:54.292Z,2.87
2017-08-28T03:39:03.187Z,2.67
2017-08-28T03:44:09.755Z,3.27
2017-08-28T03:49:16.268Z,3.37
2017-08-28T03:54:23.328Z,3.50
2017-08-28T03:59:29.831Z,3.23
2017-08-28T04:04:34.056Z,3.20
2017-08-28T04:15:01.809Z,2.87
2017-08-28T04:20:06.105Z,2.90
2017-08-28T04:25:13.865Z,3.00
2017-08-28T04:30:19.252Z,3.10
2017-08-28T04:35:25.682Z,3.10
2017-08-28T04:40:32.842Z,3.87
2017-08-28T04:45:36.322Z,3.20
2017-08-28T04:50:40.234Z,3.10
2017-08-28T04:55:43.268Z,3.30
2017-08-28T05:00:46.071Z,3.23
2017-08-28T05:05:49.485Z,3.50
2017-08-28T05:10:52.424Z,4.00
2017-08-28T05:15:55.415Z,3.50
2017-08-28T05:20:58.181Z,3.00
2017-08-28T05:26:01.074Z,3.67
2017-08-28T05:31:04.040Z,3.93
2017-08-28T05:36:09.218Z,3.67
2017-08-28T05:41:12.124Z,4.07
2017-08-28T05:46:14.951Z,3.87
2017-08-28T05:51:17.747Z,4.50
2017-08-28T05:56:20.588Z,4.20
2017-08-28T06:01:23.425Z,3.83
2017-08-28T06:06:26.265Z,3.83
2017-08-28T06:11:29.091Z,4.03
2017-08-28T06:16:31.937Z,3.70
2017-08-28T06:21:34.800Z,4.23
2017-08-28T06:26:37.645Z,3.80
2017-08-28T06:31:40.515Z,4.00
2017-08-28T06:36:43.688Z,3.40
2017-08-28T06:41:46.461Z,4.13
2017-08-28T06:46:50.080Z,3.17
2017-08-28T06:51:52.114Z,2.73
2017-08-28T06:57:03.932Z,2.83
2017-08-28T07:02:11.994Z,3.23
2017-08-28T07:07:26.175Z,3.30
2017-08-28T07:12:33.081Z,3.00
2017-08-28T07:17:39.567Z,2.97
2017-08-28T07:22:44.709Z,2.97
2017-08-28T07:27:49.710Z,2.80
2017-08-28T07:38:08.435Z,2.90
2017-08-28T07:43:11.574Z,2.87
2017-08-28T07:48:13.635Z,2.50
2017-08-28T07:53:15.615Z,2.70
2017-08-28T07:58:17.569Z,2.57
2017-08-28T08:03:19.584Z,2.70
2017-08-28T08:08:21.578Z,2.47
2017-08-28T08:13:23.589Z,3.57
2017-08-28T08:18:25.675Z,2.30
2017-08-28T08:23:27.710Z,2.23
2017-08-28T08:28:29.705Z,2.63
2017-08-28T08:39:07.688Z,1.97
2017-08-28T08:44:09.885Z,2.10
2017-08-28T08:49:11.855Z,2.40
2017-08-28T08:54:13.819Z,2.60
2017-08-28T08:59:15.822Z,2.60
2017-08-28T09:04:17.772Z,2.10
2017-08-28T09:09:19.717Z,2.90
2017-08-28T09:14:21.646Z,1.97
2017-08-28T09:19:24.736Z,2.00
2017-08-28T09:24:26.662Z,2.10
2017-08-28T09:29:28.563Z,2.20
2017-08-28T09:34:30.504Z,2.30
2017-08-28T09:39:32.444Z,2.30
2017-08-28T09:44:34.420Z,2.20
2017-08-28T09:49:36.339Z,1.83
2017-08-28T09:54:38.348Z,2.03
2017-08-28T09:59:40.352Z,1.80
2017-08-28T10:04:42.296Z,2.33
2017-08-28T10:09:44.452Z,2.00
2017-08-28T10:14:46.431Z,2.43
2017-08-28T10:19:48.414Z,1.80
2017-08-28T10:24:50.550Z,1.70
2017-08-28T10:29:52.556Z,1.90
2017-08-28T10:34:54.476Z,2.40
2017-08-28T10:39:56.443Z,2.10
2017-08-28T10:44:58.522Z,1.80
2017-08-28T10:50:00.970Z,1.93
2017-08-28T10:55:03.307Z,2.00
2017-08-28T11:00:05.272Z,1.97
2017-08-28T11:05:07.295Z,2.30
2017-08-28T11:10:09.240Z,2.00
2017-08-28T11:15:11.299Z,1.80
2017-08-28T11:20:13.249Z,2.03
2017-08-28T11:25:15.203Z,2.30
2017-08-28T11:30:17.183Z,2.10
2017-08-28T11:35:21.695Z,2.00
2017-08-28T11:40:26.456Z,2.30
2017-08-28T11:45:28.422Z,2.10
2017-08-28T11:50:35.654Z,2.20
2017-08-28T11:55:37.890Z,2.17
2017-08-28T12:00:44.861Z,1.97
2017-08-28T12:05:47.325Z,2.03
2017-08-28T12:10:49.435Z,2.33
2017-08-28T12:15:51.649Z,2.40
2017-08-28T12:20:53.808Z,1.60
2017-08-28T12:26:02.026Z,1.83
2017-08-28T12:31:04.639Z,2.23
2017-08-28T12:36:06.974Z,2.40
2017-08-28T12:41:08.957Z,2.20
2017-08-28T12:46:10.939Z,2.30
2017-08-28T12:51:12.871Z,2.63
2017-08-28T12:56:14.862Z,2.23
2017-08-28T13:01:20.457Z,2.83
2017-08-28T13:06:24.156Z,2.27
2017-08-28T13:11:26.367Z,2.43
2017-08-28T13:16:29.069Z,2.23
2017-08-28T13:21:31.417Z,2.00
2017-08-28T13:26:37.485Z,2.80
2017-08-28T13:31:39.749Z,2.03
2017-08-28T13:36:41.692Z,2.87
2017-08-28T13:41:43.612Z,2.30
2017-08-28T13:46:45.579Z,2.40
2017-08-28T13:51:47.535Z,2.00
2017-08-28T13:56:49.500Z,2.30
2017-08-28T14:01:51.423Z,2.77
2017-08-28T14:06:53.467Z,2.30
2017-08-28T14:11:55.419Z,2.13
2017-08-28T14:16:57.367Z,2.50
2017-08-28T14:21:59.294Z,2.00
2017-08-28T14:27:01.276Z,2.03
2017-08-28T14:32:03.271Z,2.03
2017-08-28T14:37:05.234Z,2.20
2017-08-28T14:42:07.161Z,2.73
2017-08-28T14:47:09.406Z,2.10
2017-08-28T14:52:11.320Z,2.67
2017-08-28T14:57:13.252Z,2.70
2017-08-28T15:02:15.199Z,2.23
2017-08-28T15:07:17.233Z,2.43
2017-08-28T15:12:20.667Z,3.07
2017-08-28T15:17:22.754Z,2.30
2017-08-28T15:22:24.703Z,2.70
2017-08-28T15:27:26.967Z,2.70
2017-08-28T15:32:28.916Z,2.67
2017-08-28T15:37:30.832Z,2.77
2017-08-28T15:42:32.750Z,2.33
2017-08-28T15:47:34.686Z,2.30
2017-08-28T15:52:37.423Z,2.30
2017-08-28T15:57:39.399Z,2.40
2017-08-28T16:02:41.291Z,2.50
2017-08-28T16:07:43.255Z,2.80
2017-08-28T16:12:45.520Z,3.30
2017-08-28T16:17:47.548Z,2.50
2017-08-28T16:22:49.471Z,2.73
2017-08-28T16:27:51.458Z,2.93
2017-08-28T16:32:53.426Z,2.33
2017-08-28T16:37:55.421Z,2.53
2017-08-28T16:42:57.965Z,2.90
2017-08-28T16:48:00.008Z,2.20
2017-08-28T16:53:01.959Z,2.33
2017-08-28T16:58:03.880Z,2.53
2017-08-28T17:03:05.821Z,2.70
2017-08-28T17:08:07.746Z,2.53
2017-08-28T17:13:10.132Z,2.40
2017-08-28T17:18:12.288Z,2.30
2017-08-28T17:23:14.229Z,3.00
2017-08-28T17:33:34.165Z,2.37
2017-08-28T17:38:43.186Z,2.20
2017-08-28T17:43:49.124Z,2.80
2017-08-28T17:48:56.705Z,2.00
2017-08-28T17:54:04.081Z,2.73
2017-08-28T17:59:11.546Z,2.90
2017-08-28T18:04:14.598Z,3.10
2017-08-28T18:09:19.712Z,3.00
2017-08-28T18:14:23.367Z,2.37
2017-08-28T18:19:25.398Z,3.07
2017-08-28T18:24:27.921Z,3.10
2017-08-28T18:29:29.924Z,3.20
2017-08-28T18:34:36.513Z,3.60
2017-08-28T18:39:38.746Z,3.30
2017-08-28T18:44:42.030Z,4.43
2017-08-28T18:49:45.325Z,5.67
2017-08-28T18:54:48.487Z,6.40
2017-08-28T18:59:51.652Z,5.13
2017-08-28T19:04:55.027Z,6.00
2017-08-28T19:09:58.317Z,6.30
2017-08-28T19:15:01.662Z,5.10
2017-08-28T19:20:05.994Z,4.93
2017-08-28T19:25:10.638Z,5.00
2017-08-28T19:30:15.932Z,5.47
2017-08-28T19:35:21.794Z,5.17
2017-08-28T19:40:28.553Z,5.87
2017-08-28T19:45:31.954Z,5.97
2017-08-28T19:50:35.613Z,8.27
2017-08-28T19:55:39.623Z,10.23
2017-08-28T20:00:44.250Z,8.57
2017-08-28T20:05:49.236Z,8.80
2017-08-28T20:10:52.401Z,7.57
2017-08-28T20:15:55.558Z,7.70
2017-08-28T20:20:58.875Z,6.40
2017-08-28T20:26:02.022Z,6.97
2017-08-28T20:31:05.184Z,5.70
2017-08-28T20:36:08.400Z,5.80
2017-08-28T20:41:11.584Z,6.03
2017-08-28T20:46:14.852Z,6.00
2017-08-28T20:51:18.152Z,5.47
2017-08-28T20:56:21.407Z,5.50
2017-08-28T21:01:24.555Z,5.00
2017-08-28T21:06:27.759Z,5.43
2017-08-28T21:11:30.913Z,5.40
2017-08-28T21:16:32.899Z,5.60
2017-08-28T21:21:34.871Z,5.20
2017-08-28T21:26:37.191Z,5.77
2017-08-28T21:31:39.137Z,5.63
2017-08-28T21:36:41.501Z,5.77
2017-08-28T21:41:43.496Z,5.23
2017-08-28T21:46:45.903Z,5.87
2017-08-28T21:51:47.831Z,5.90
2017-08-28T21:56:49.776Z,4.60
2017-08-28T22:01:51.863Z,5.30
2017-08-28T22:06:53.787Z,4.80
2017-08-28T22:11:56.043Z,4.97
2017-08-28T22:16:59.412Z,4.60
2017-08-28T22:22:01.447Z,4.47
2017-08-28T22:27:03.420Z,4.77
2017-08-28T22:32:05.346Z,5.20
2017-08-28T22:37:07.314Z,4.93
2017-08-28T22:42:09.317Z,4.90
2017-08-28T22:47:11.323Z,4.37
2017-08-28T22:52:13.361Z,4.93
2017-08-28T22:57:15.987Z,3.70
2017-08-28T23:02:18.638Z,3.90
2017-08-28T23:07:21.233Z,3.77
2017-08-28T23:12:23.935Z,3.90
2017-08-28T23:17:25.893Z,3.57
2017-08-28T23:22:27.983Z,3.50
2017-08-28T23:27:29.898Z,3.83
2017-08-28T23:32:32.264Z,4.10
2017-08-28T23:37:34.505Z,4.23
2017-08-28T23:42:36.487Z,3.93
2017-08-28T23:47:38.434Z,4.47
2017-08-28T23:52:40.991Z,4.13
2017-08-28T23:57:43.199Z,3.77
